createdAt,value
2018-10-18T00:00:47.724Z,101809.94
2018-10-18T00:03:17.044Z,101817.48
2018-10-18T00:05:46.938Z,101815.28
2018-10-18T00:08:16.861Z,101817.47
2018-10-18T00:10:46.402Z,101813.04
2018-10-18T00:13:15.801Z,101807.29
2018-10-18T00:15:45.485Z,101813.04
2018-10-18T00:18:14.751Z,101814.82
2018-10-18T00:20:44.441Z,101807.31
2018-10-18T00:23:13.866Z,101819.25
2018-10-18T00:25:43.370Z,101808.62
2018-10-18T00:28:12.798Z,101815.67
2018-10-18T00:30:42.168Z,101813.91
2018-10-18T00:33:11.447Z,101817.06
2018-10-18T00:35:40.860Z,101817.52
2018-10-18T00:38:10.366Z,101805.56
2018-10-18T00:40:39.670Z,101806.02
2018-10-18T00:43:09.158Z,101806.92
2018-10-18T00:45:38.483Z,101816.64
2018-10-18T00:48:07.873Z,101814.45
2018-10-18T00:50:37.297Z,101819.29
2018-10-18T00:53:06.834Z,101815.73
2018-10-18T00:55:35.955Z,101811.80
2018-10-18T00:58:05.766Z,101814.87
2018-10-18T01:00:35.121Z,101810.44
2018-10-18T01:03:04.373Z,101821.06
2018-10-18T01:05:33.747Z,101821.48
2018-10-18T01:08:03.328Z,101827.65
2018-10-18T01:10:32.657Z,101829.42
2018-10-18T01:13:33.342Z,101830.30
2018-10-18T01:16:03.057Z,101833.40
2018-10-18T01:18:32.608Z,101836.03
2018-10-18T01:21:02.430Z,101826.33
2018-10-18T01:23:31.686Z,101835.17
2018-10-18T01:26:01.264Z,101829.87
2018-10-18T01:28:30.900Z,101825.45
2018-10-18T01:31:00.386Z,101824.13
2018-10-18T01:33:29.597Z,101820.16
2018-10-18T01:35:59.188Z,101820.19
2018-10-18T01:38:28.423Z,101816.64
2018-10-18T01:40:57.929Z,101820.59
2018-10-18T01:43:27.634Z,101816.64
2018-10-18T01:45:57.209Z,101816.64
2018-10-18T01:48:26.586Z,101814.00
2018-10-18T01:50:56.146Z,101814.45
2018-10-18T01:53:25.391Z,101809.12
2018-10-18T01:55:54.554Z,101806.05
2018-10-18T01:58:24.714Z,101813.54
2018-10-18T02:00:53.914Z,101814.00
2018-10-18T02:03:23.474Z,101814.90
2018-10-18T02:05:53.427Z,101813.09
2018-10-18T02:08:23.063Z,101803.42
2018-10-18T02:10:52.452Z,101815.31
2018-10-18T02:13:22.384Z,101810.44
2018-10-18T02:15:51.668Z,101814.00
2018-10-18T02:18:21.241Z,101816.22
2018-10-18T02:20:51.086Z,101821.94
2018-10-18T02:23:20.402Z,101823.71
2018-10-18T02:25:50.039Z,101822.84
2018-10-18T02:28:19.539Z,101825.48
2018-10-18T02:30:48.670Z,101823.70
2018-10-18T02:33:18.173Z,101818.44
2018-10-18T02:35:47.526Z,101816.66
2018-10-18T02:38:16.917Z,101817.54
2018-10-18T02:40:46.452Z,101819.28
2018-10-18T02:43:15.985Z,101823.69
2018-10-18T02:45:45.313Z,101821.08
2018-10-18T02:48:14.834Z,101828.56
2018-10-18T02:50:44.423Z,101834.30
2018-10-18T02:53:13.605Z,101824.58
2018-10-18T02:55:42.758Z,101832.53
2018-10-18T02:58:12.294Z,101824.58
2018-10-18T03:00:41.545Z,101825.92
2018-10-18T03:03:11.139Z,101829.47
2018-10-18T03:05:40.828Z,101827.23
2018-10-18T03:08:10.140Z,101826.81
2018-10-18T03:10:40.253Z,101833.42
2018-10-18T03:13:09.633Z,101835.20
2018-10-18T03:15:38.493Z,101832.12
2018-10-18T03:18:08.325Z,101843.11
2018-10-18T03:20:37.758Z,101843.58
2018-10-18T03:23:07.071Z,101836.08
2018-10-18T03:25:36.554Z,101830.78
2018-10-18T03:28:06.235Z,101833.41
2018-10-18T03:30:35.471Z,101831.64
2018-10-18T03:33:05.178Z,101839.59
2018-10-18T03:35:34.840Z,101831.64
2018-10-18T03:38:04.642Z,101829.45
2018-10-18T03:40:34.024Z,101838.71
2018-10-18T03:43:03.446Z,101844.43
2018-10-18T03:45:32.863Z,101840.89
2018-10-18T03:48:02.555Z,101838.25
2018-10-18T03:50:32.141Z,101846.64
2018-10-18T03:53:01.437Z,101841.33
2018-10-18T03:55:31.016Z,101839.56
2018-10-18T03:58:00.598Z,101841.30
2018-10-18T04:00:30.126Z,101846.59
2018-10-18T04:02:59.593Z,101855.38
2018-10-18T04:05:29.103Z,101852.73
2018-10-18T04:07:58.453Z,101854.49
2018-10-18T04:10:28.146Z,101850.97
2018-10-18T04:12:57.639Z,101849.21
2018-10-18T04:15:26.855Z,101838.59
2018-10-18T04:17:57.032Z,101846.52
2018-10-18T04:20:26.401Z,101847.39
2018-10-18T04:22:55.528Z,101849.18
2018-10-18T04:25:25.044Z,101843.00
2018-10-18T04:27:54.443Z,101842.98
2018-10-18T04:30:24.595Z,101845.66
2018-10-18T04:32:53.878Z,101846.98
2018-10-18T04:35:23.436Z,101843.00
2018-10-18T04:37:52.697Z,101850.05
2018-10-18T04:40:22.145Z,101849.98
2018-10-18T04:42:51.912Z,101843.33
2018-10-18T04:45:21.379Z,101850.81
2018-10-18T04:47:50.815Z,101849.95
2018-10-18T04:50:20.077Z,101853.03
2018-10-18T04:52:49.292Z,101853.93
2018-10-18T04:55:18.728Z,101856.08
2018-10-18T04:57:48.193Z,101856.97
2018-10-18T05:00:17.490Z,101849.94
2018-10-18T05:02:47.129Z,101857.46
2018-10-18T05:05:27.420Z,101863.17
2018-10-18T05:07:56.946Z,101862.29
2018-10-18T05:10:26.179Z,101867.55
2018-10-18T05:12:56.167Z,101866.22
2018-10-18T05:15:25.774Z,101868.44
2018-10-18T05:17:55.023Z,101874.16
2018-10-18T05:20:24.608Z,101871.94
2018-10-18T05:22:54.043Z,101875.92
2018-10-18T05:25:23.299Z,101871.52
2018-10-18T05:27:52.931Z,101871.95
2018-10-18T05:30:22.485Z,101876.76
2018-10-18T05:32:52.019Z,101875.87
2018-10-18T05:35:21.481Z,101881.13
2018-10-18T05:37:50.972Z,101878.06
2018-10-18T05:40:20.368Z,101876.31
2018-10-18T05:42:50.194Z,101886.37
2018-10-18T05:45:19.502Z,101892.55
2018-10-18T05:47:48.982Z,101899.13
2018-10-18T05:50:18.671Z,101905.29
2018-10-18T05:52:48.091Z,101912.34
2018-10-18T05:55:17.472Z,101910.14
2018-10-18T05:57:47.078Z,101915.88
2018-10-18T06:00:17.559Z,101921.55
2018-10-18T06:02:47.044Z,101918.51
2018-10-18T06:05:17.253Z,101927.34
2018-10-18T06:07:46.707Z,101922.45
2018-10-18T06:10:27.458Z,101927.76
2018-10-18T06:12:56.988Z,101932.09
2018-10-18T06:15:26.290Z,101928.16
2018-10-18T06:17:55.909Z,101935.19
2018-10-18T06:20:25.350Z,101933.45
2018-10-18T06:22:54.861Z,101941.79
2018-10-18T06:25:24.336Z,101941.37
2018-10-18T06:27:53.985Z,101939.53
2018-10-18T06:30:23.566Z,101947.91
2018-10-18T06:32:53.152Z,101947.42
2018-10-18T06:35:22.800Z,101950.98
2018-10-18T06:37:53.024Z,101946.59
2018-10-18T06:40:22.829Z,101948.28
2018-10-18T06:42:52.273Z,101951.81
2018-10-18T06:45:21.521Z,101948.34
2018-10-18T06:47:51.445Z,101956.63
2018-10-18T06:50:21.675Z,101960.53
2018-10-18T06:52:51.028Z,101964.09
2018-10-18T06:55:20.780Z,101966.73
2018-10-18T06:57:50.351Z,101966.77
2018-10-18T07:00:23.605Z,101969.34
2018-10-18T07:02:53.129Z,101974.65
2018-10-18T07:05:22.761Z,101971.15
2018-10-18T07:07:51.926Z,101966.33
2018-10-18T07:10:21.177Z,101972.09
2018-10-18T07:12:50.906Z,101982.66
2018-10-18T07:15:20.333Z,101986.22
2018-10-18T07:17:50.042Z,101992.41
2018-10-18T07:20:19.923Z,101987.13
2018-10-18T07:22:49.414Z,101987.62
2018-10-18T07:25:18.975Z,101987.59
2018-10-18T07:27:48.170Z,101986.30
2018-10-18T07:30:17.641Z,101996.80
2018-10-18T07:32:47.108Z,102001.69
2018-10-18T07:35:16.730Z,102003.52
2018-10-18T07:37:46.058Z,102008.83
2018-10-18T07:40:16.542Z,102017.67
2018-10-18T07:42:46.068Z,102019.84
2018-10-18T07:45:15.833Z,102013.73
2018-10-18T07:47:46.039Z,102016.37
2018-10-18T07:50:15.811Z,102017.26
2018-10-18T07:52:45.021Z,102021.28
2018-10-18T07:55:14.449Z,102034.02
2018-10-18T07:57:44.244Z,102036.62
2018-10-18T08:00:16.194Z,102034.00
2018-10-18T08:02:46.054Z,102038.84
2018-10-18T08:05:16.097Z,102043.73
2018-10-18T08:07:45.480Z,102045.05
2018-10-18T08:10:18.096Z,102047.19
2018-10-18T08:12:47.608Z,102048.52
2018-10-18T08:15:17.769Z,102045.88
2018-10-18T08:17:47.477Z,102057.80
2018-10-18T08:20:17.147Z,102059.58
2018-10-18T08:22:46.708Z,102063.20
2018-10-18T08:25:16.088Z,102055.27
2018-10-18T08:27:45.500Z,102059.64
2018-10-18T08:30:15.037Z,102056.14
2018-10-18T08:32:44.261Z,102066.30
2018-10-18T08:35:14.074Z,102072.04
2018-10-18T08:37:44.055Z,102081.30
2018-10-18T08:40:13.543Z,102079.94
2018-10-18T08:42:42.998Z,101900.92
2018-10-18T08:45:12.958Z,102079.95
2018-10-18T08:47:43.293Z,102082.61
2018-10-18T08:50:13.470Z,102091.89
2018-10-18T08:52:43.064Z,102091.91
2018-10-18T08:55:13.905Z,102097.67
2018-10-18T08:57:43.729Z,102095.97
2018-10-18T09:00:13.637Z,102096.41
2018-10-18T09:02:43.388Z,102102.12
2018-10-18T09:05:12.738Z,102109.21
2018-10-18T09:07:42.352Z,102111.83
2018-10-18T09:10:11.658Z,102102.15
2018-10-18T09:12:40.873Z,102112.31
2018-10-18T09:15:11.193Z,102114.09
2018-10-18T09:17:40.305Z,102120.75
2018-10-18T09:20:09.435Z,102119.38
2018-10-18T09:22:38.921Z,102113.16
2018-10-18T09:25:09.521Z,102113.61
2018-10-18T09:27:38.942Z,102094.63
2018-10-18T09:30:09.546Z,102091.95
2018-10-18T09:32:39.011Z,102090.84
2018-10-18T09:35:08.443Z,102104.73
2018-10-18T09:37:38.222Z,102108.77
2018-10-18T09:40:09.240Z,102102.61
2018-10-18T09:42:38.503Z,102092.03
2018-10-18T09:45:09.728Z,102099.06
2018-10-18T09:47:39.081Z,102095.09
2018-10-18T09:50:08.949Z,102083.62
2018-10-18T09:52:38.949Z,102085.78
2018-10-18T09:55:10.077Z,102080.95
2018-10-18T09:57:39.212Z,102087.13
2018-10-18T10:00:13.021Z,102089.35
2018-10-18T10:02:47.423Z,102093.73
2018-10-18T10:05:16.901Z,102097.72
2018-10-18T10:07:46.363Z,102099.87
2018-10-18T10:10:15.907Z,102103.37
2018-10-18T10:12:45.891Z,102102.53
2018-10-18T10:15:15.168Z,102097.64
2018-10-18T10:17:44.475Z,102098.97
2018-10-18T10:20:14.058Z,102097.19
2018-10-18T10:22:44.719Z,102092.83
2018-10-18T10:25:14.328Z,102090.19
2018-10-18T10:27:43.741Z,102090.66
2018-10-18T10:30:12.912Z,102089.33
2018-10-18T10:32:42.346Z,102089.33
2018-10-18T10:35:11.657Z,102094.63
2018-10-18T10:37:40.948Z,102085.80
2018-10-18T10:40:11.076Z,102091.11
2018-10-18T10:42:41.205Z,102086.61
2018-10-18T10:45:11.639Z,102092.41
2018-10-18T10:47:41.128Z,102098.95
2018-10-18T10:50:11.210Z,101942.20
2018-10-18T10:52:40.696Z,102102.56
2018-10-18T10:55:10.937Z,102097.28
2018-10-18T10:57:40.316Z,102102.60
2018-10-18T11:00:09.636Z,102103.02
2018-10-18T11:02:39.103Z,102098.59
2018-10-18T11:05:08.592Z,102098.60
2018-10-18T11:07:38.132Z,102106.99
2018-10-18T11:10:07.947Z,102103.03
2018-10-18T11:12:37.785Z,102103.48
2018-10-18T11:15:07.033Z,102097.75
2018-10-18T11:17:36.471Z,102102.61
2018-10-18T11:20:06.555Z,102106.58
2018-10-18T11:22:35.984Z,102103.93
2018-10-18T11:25:05.752Z,102108.77
2018-10-18T11:27:35.218Z,102104.81
2018-10-18T11:30:04.821Z,102108.80
2018-10-18T11:32:34.320Z,102109.69
2018-10-18T11:35:03.795Z,102107.02
2018-10-18T11:37:33.067Z,102108.36
2018-10-18T11:40:02.908Z,102114.98
2018-10-18T11:42:32.466Z,102109.23
2018-10-18T11:45:02.611Z,102113.65
2018-10-18T11:47:32.084Z,102103.51
2018-10-18T11:50:01.570Z,102103.06
2018-10-18T11:52:30.812Z,102103.95
2018-10-18T11:55:00.265Z,102107.03
2018-10-18T11:57:29.776Z,102101.73
2018-10-18T11:59:59.385Z,102109.22
2018-10-18T12:02:29.099Z,102104.83
2018-10-18T12:04:58.481Z,102108.79
2018-10-18T12:07:28.222Z,102109.69
2018-10-18T12:09:57.892Z,102104.36
2018-10-18T12:12:27.186Z,102097.75
2018-10-18T12:14:56.719Z,102103.48
2018-10-18T12:17:26.178Z,102100.84
2018-10-18T12:19:55.498Z,102102.59
2018-10-18T12:22:25.004Z,102109.69
2018-10-18T12:24:54.361Z,102109.23
2018-10-18T12:27:24.638Z,102108.33
2018-10-18T12:29:54.023Z,102104.83
2018-10-18T12:32:23.429Z,102109.66
2018-10-18T12:34:52.931Z,102112.31
2018-10-18T12:37:22.683Z,102111.44
2018-10-18T12:39:52.171Z,102107.02
2018-10-18T12:42:21.618Z,102107.92
2018-10-18T12:44:51.282Z,102114.52
2018-10-18T12:47:21.267Z,102115.81
2018-10-18T12:49:50.600Z,102110.06
2018-10-18T12:52:20.128Z,102115.83
2018-10-18T12:54:49.395Z,102106.98
2018-10-18T12:57:18.452Z,102115.80
2018-10-18T12:59:48.118Z,102117.94
2018-10-18T13:02:17.920Z,102114.36
2018-10-18T13:04:47.401Z,102119.20
2018-10-18T13:07:16.808Z,102127.17
2018-10-18T13:09:46.575Z,102122.34
2018-10-18T13:12:16.006Z,102120.55
2018-10-18T13:14:45.722Z,102117.94
2018-10-18T13:17:15.361Z,102115.75
2018-10-18T13:19:44.736Z,102122.79
2018-10-18T13:22:14.517Z,102118.31
2018-10-18T13:24:44.333Z,102116.11
2018-10-18T13:27:13.715Z,102122.76
2018-10-18T13:29:43.095Z,102128.00
2018-10-18T13:32:12.623Z,102127.12
2018-10-18T13:34:41.928Z,102126.25
2018-10-18T13:37:11.407Z,102118.29
2018-10-18T13:39:41.022Z,102124.44
2018-10-18T13:42:10.480Z,102132.33
2018-10-18T13:44:40.025Z,102133.23
2018-10-18T13:47:09.497Z,102136.66
2018-10-18T13:49:38.796Z,102134.92
2018-10-18T13:52:08.337Z,102134.92
2018-10-18T13:54:38.178Z,102142.00
2018-10-18T13:57:07.504Z,102138.02
2018-10-18T13:59:47.965Z,102141.92
2018-10-18T14:02:17.324Z,102143.72
2018-10-18T14:04:46.714Z,102136.58
2018-10-18T14:07:16.485Z,102141.83
2018-10-18T14:09:46.024Z,102139.20
2018-10-18T14:12:15.320Z,102132.16
2018-10-18T14:14:44.944Z,102135.23
2018-10-18T14:17:14.122Z,102138.31
2018-10-18T14:19:43.433Z,102141.77
2018-10-18T14:22:13.190Z,102140.80
2018-10-18T14:24:42.796Z,102143.45
2018-10-18T14:27:12.128Z,102154.91
2018-10-18T14:29:41.789Z,102148.27
2018-10-18T14:32:11.136Z,102152.63
2018-10-18T14:34:40.275Z,102150.85
2018-10-18T14:37:09.997Z,102148.70
2018-10-18T14:39:39.373Z,102154.84
2018-10-18T14:42:08.571Z,102166.22
2018-10-18T14:44:38.044Z,102157.30
2018-10-18T14:47:07.534Z,102152.55
2018-10-18T14:49:36.833Z,102162.78
2018-10-18T14:52:07.090Z,102162.12
2018-10-18T14:54:36.304Z,102165.75
2018-10-18T14:57:05.865Z,102163.54
2018-10-18T14:59:35.749Z,102166.08
2018-10-18T15:02:05.785Z,102167.77
2018-10-18T15:04:35.661Z,102169.55
2018-10-18T15:07:05.781Z,102172.22
2018-10-18T15:09:35.307Z,102173.14
2018-10-18T15:12:05.220Z,102173.05
2018-10-18T15:14:34.646Z,102179.64
2018-10-18T15:17:03.883Z,102178.28
2018-10-18T15:19:33.417Z,102171.22
2018-10-18T15:22:02.914Z,102174.75
2018-10-18T15:24:32.451Z,102177.36
2018-10-18T15:27:01.842Z,102187.49
2018-10-18T15:29:31.332Z,102181.78
2018-10-18T15:32:00.526Z,102189.59
2018-10-18T15:34:29.930Z,102194.83
2018-10-18T15:36:59.798Z,102189.16
2018-10-18T15:39:29.345Z,102196.58
2018-10-18T15:41:59.244Z,102209.73
2018-10-18T15:44:28.626Z,102198.36
2018-10-18T15:46:57.938Z,102188.99
2018-10-18T15:49:27.714Z,102195.52
2018-10-18T15:51:57.132Z,102188.61
2018-10-18T15:54:26.555Z,102202.75
2018-10-18T15:56:56.281Z,102197.39
2018-10-18T15:59:27.235Z,102198.28
2018-10-18T16:01:56.799Z,102203.00
2018-10-18T16:04:26.281Z,102207.77
2018-10-18T16:06:56.059Z,102209.04
2018-10-18T16:09:25.979Z,102209.51
2018-10-18T16:11:55.347Z,102204.14
2018-10-18T16:14:25.442Z,102211.48
2018-10-18T16:16:55.017Z,102216.24
2018-10-18T16:19:24.410Z,102218.89
2018-10-18T16:21:53.934Z,102218.89
2018-10-18T16:24:24.211Z,102215.35
2018-10-18T16:26:53.342Z,102231.17
2018-10-18T16:29:23.835Z,102225.05
2018-10-18T16:31:53.250Z,102227.16
2018-10-18T16:34:23.118Z,102223.11
2018-10-18T16:36:53.062Z,102221.84
2018-10-18T16:39:22.576Z,102219.25
2018-10-18T16:41:53.126Z,102221.42
2018-10-18T16:44:22.825Z,102225.85
2018-10-18T16:46:52.486Z,102219.67
2018-10-18T16:49:22.875Z,102225.85
2018-10-18T16:51:53.085Z,102231.48
2018-10-18T16:54:22.530Z,102237.25
2018-10-18T16:56:51.924Z,102232.23
2018-10-18T16:59:21.837Z,102231.34
2018-10-18T17:01:51.325Z,102234.81
2018-10-18T17:04:21.279Z,102237.86
2018-10-18T17:06:51.188Z,102238.40
2018-10-18T17:09:21.541Z,102238.45
2018-10-18T17:11:51.031Z,102237.88
2018-10-18T17:14:21.117Z,102238.81
2018-10-18T17:16:50.453Z,102240.94
2018-10-18T17:19:19.974Z,102244.11
2018-10-18T17:21:49.961Z,102248.48
2018-10-18T17:24:19.626Z,102244.11
2018-10-18T17:26:49.267Z,102254.70
2018-10-18T17:29:18.878Z,102252.54
2018-10-18T17:31:48.241Z,102252.59
2018-10-18T17:34:17.843Z,102254.38
2018-10-18T17:36:47.553Z,102251.75
2018-10-18T17:39:16.779Z,102253.86
2018-10-18T17:41:46.092Z,102255.61
2018-10-18T17:44:15.987Z,102251.53
2018-10-18T17:46:45.525Z,102256.15
2018-10-18T17:49:14.979Z,102253.54
2018-10-18T17:51:45.294Z,102260.95
2018-10-18T17:54:15.214Z,102259.66
2018-10-18T17:56:44.269Z,102262.75
2018-10-18T17:59:13.908Z,102264.44
2018-10-18T18:01:43.532Z,102265.35
2018-10-18T18:04:12.871Z,102267.16
2018-10-18T18:06:42.953Z,102273.13
2018-10-18T18:09:12.665Z,102274.58
2018-10-18T18:11:42.048Z,102278.94
2018-10-18T18:14:11.853Z,102285.80
2018-10-18T18:16:41.360Z,102276.14
2018-10-18T18:19:10.729Z,102275.31
2018-10-18T18:21:40.436Z,102284.48
2018-10-18T18:24:10.082Z,102280.63
2018-10-18T18:26:45.345Z,102284.78
2018-10-18T18:29:09.502Z,102288.29
2018-10-18T18:31:38.906Z,102290.85
2018-10-18T18:34:08.424Z,102296.70
2018-10-18T18:36:38.249Z,102295.52
2018-10-18T18:39:10.134Z,102298.99
2018-10-18T18:44:05.682Z,102305.55
2018-10-18T18:46:35.102Z,102308.61
2018-10-18T18:49:04.691Z,102312.77
2018-10-18T18:51:34.343Z,102311.72
2018-10-18T18:54:03.941Z,102306.52
2018-10-18T18:56:33.268Z,102312.30
2018-10-18T18:59:03.653Z,102320.66
2018-10-18T19:01:33.007Z,102321.74
2018-10-18T19:04:02.570Z,102319.06
2018-10-18T19:06:32.404Z,102321.37
2018-10-18T19:09:01.896Z,102330.52
2018-10-18T19:11:31.715Z,102331.50
2018-10-18T19:14:01.467Z,102331.34
2018-10-18T19:16:30.898Z,102328.63
2018-10-18T19:19:00.206Z,102337.01
2018-10-18T19:21:29.722Z,102311.89
2018-10-18T19:23:59.011Z,102340.56
2018-10-18T19:26:28.488Z,102337.94
2018-10-18T19:28:58.279Z,102350.29
2018-10-18T19:31:27.720Z,102357.64
2018-10-18T19:33:57.209Z,102356.23
2018-10-18T19:36:26.940Z,102362.72
2018-10-18T19:38:56.322Z,102365.44
2018-10-18T19:41:25.630Z,102365.75
2018-10-18T19:43:55.416Z,102365.02
2018-10-18T19:46:24.933Z,102357.72
2018-10-18T19:48:54.426Z,102368.63
2018-10-18T19:51:24.360Z,102370.75
2018-10-18T19:53:54.012Z,102359.95
2018-10-18T19:56:23.567Z,102372.17
2018-10-18T19:58:53.395Z,102371.51
2018-10-18T20:01:22.962Z,102236.45
2018-10-18T20:03:52.670Z,102371.45
2018-10-18T20:06:22.446Z,102363.60
2018-10-18T20:08:52.360Z,102370.47
2018-10-18T20:11:22.187Z,102369.13
2018-10-18T20:13:52.189Z,102367.90
2018-10-18T20:16:21.642Z,102365.20
2018-10-18T20:18:51.421Z,102368.70
2018-10-18T20:21:21.440Z,102366.91
2018-10-18T20:23:51.357Z,102368.36
2018-10-18T20:26:21.218Z,102361.62
2018-10-18T20:28:50.774Z,102369.33
2018-10-18T20:31:21.856Z,102373.63
2018-10-18T20:33:52.069Z,102373.08
2018-10-18T20:36:21.618Z,102372.88
2018-10-18T20:38:51.081Z,102366.91
2018-10-18T20:41:20.623Z,102374.06
2018-10-18T20:43:50.246Z,102374.05
2018-10-18T20:46:19.873Z,102369.87
2018-10-18T20:48:49.753Z,102373.27
2018-10-18T20:51:19.099Z,102373.23
2018-10-18T20:53:48.666Z,102368.76
2018-10-18T20:56:18.564Z,102371.58
2018-10-18T20:58:48.053Z,102371.51
2018-10-18T21:01:17.481Z,102358.84
2018-10-18T21:03:46.995Z,102368.31
2018-10-18T21:06:16.599Z,102368.69
2018-10-18T21:08:45.992Z,102359.89
2018-10-18T21:11:15.671Z,102362.04
2018-10-18T21:13:45.114Z,102359.28
2018-10-18T21:16:14.521Z,102354.39
2018-10-18T21:18:44.128Z,102352.37
2018-10-18T21:21:13.665Z,102356.14
2018-10-18T21:23:43.090Z,102355.30
2018-10-18T21:26:12.844Z,102343.65
2018-10-18T21:28:42.250Z,102355.89
2018-10-18T21:31:11.647Z,102356.20
2018-10-18T21:33:41.358Z,102356.66
2018-10-18T21:36:10.871Z,102355.67
2018-10-18T21:38:40.504Z,102359.06
2018-10-18T21:41:10.271Z,102353.95
2018-10-18T21:43:39.694Z,102364.48
2018-10-18T21:46:09.146Z,102367.01
2018-10-18T21:48:39.279Z,102365.63
2018-10-18T21:51:08.491Z,102369.89
2018-10-18T21:53:37.863Z,102373.34
2018-10-18T21:56:07.734Z,102370.20
2018-10-18T21:58:36.900Z,102372.17
2018-10-18T22:01:06.593Z,102372.63
2018-10-18T22:03:36.250Z,102371.03
2018-10-18T22:06:05.980Z,102370.94
2018-10-18T22:08:35.606Z,102362.90
2018-10-18T22:11:05.398Z,102364.68
2018-10-18T22:13:34.735Z,102368.80
2018-10-18T22:16:04.243Z,102369.53
2018-10-18T22:18:33.896Z,102370.77
2018-10-18T22:21:03.012Z,102366.17
2018-10-18T22:23:32.307Z,102375.25
2018-10-18T22:26:01.841Z,102366.45
2018-10-18T22:28:31.044Z,102376.22
2018-10-18T22:31:00.326Z,102380.52
2018-10-18T22:33:30.340Z,102380.03
2018-10-18T22:35:59.624Z,102376.58
2018-10-18T22:38:29.100Z,102379.37
2018-10-18T22:40:59.099Z,102373.42
2018-10-18T22:43:28.533Z,102377.99
2018-10-18T22:45:59.879Z,102377.41
2018-10-18T22:48:30.572Z,102376.28
2018-10-18T22:51:00.184Z,102375.45
2018-10-18T22:53:29.609Z,102373.27
2018-10-18T22:55:59.136Z,102376.81
2018-10-18T22:58:28.618Z,102385.28
2018-10-18T23:00:58.142Z,102382.39
2018-10-18T23:03:27.701Z,102382.28
2018-10-18T23:05:57.029Z,102387.53
2018-10-18T23:08:26.595Z,102381.16
2018-10-18T23:10:56.120Z,102378.77
2018-10-18T23:13:25.466Z,102384.17
2018-10-18T23:15:55.358Z,102377.11
2018-10-18T23:18:24.838Z,102258.47
2018-10-18T23:20:54.225Z,102385.95
2018-10-18T23:23:24.204Z,102388.38
2018-10-18T23:25:54.007Z,102282.27
2018-10-18T23:28:23.600Z,102386.72
2018-10-18T23:30:53.571Z,102385.58
2018-10-18T23:33:23.032Z,102379.45
2018-10-18T23:35:52.476Z,102384.02
2018-10-18T23:38:23.153Z,102377.91
2018-10-18T23:40:52.872Z,102372.66
2018-10-18T23:43:22.265Z,102377.21
2018-10-18T23:45:54.060Z,102373.80
2018-10-18T23:48:23.739Z,102370.87
2018-10-18T23:50:53.741Z,102377.62
2018-10-18T23:53:23.335Z,102380.08
2018-10-18T23:55:52.846Z,102372.77
2018-10-18T23:58:22.620Z,102362.14
